createdAt,value
2023-03-15T00:41:01.772Z,17.77
2023-03-15T00:42:01.781Z,17.74
2023-03-15T00:43:01.787Z,17.68
2023-03-15T00:44:01.832Z,17.74
2023-03-15T00:45:01.870Z,17.79
2023-03-15T00:46:01.869Z,17.74
2023-03-15T00:47:02.169Z,17.80
2023-03-15T00:48:01.922Z,17.71
2023-03-15T00:49:01.962Z,17.79
2023-03-15T00:50:01.991Z,17.74
2023-03-15T00:51:02.009Z,17.73
2023-03-15T00:52:02.031Z,17.71
2023-03-15T00:53:02.173Z,17.70
2023-03-15T00:54:02.380Z,17.74
2023-03-15T00:55:02.120Z,17.79
2023-03-15T00:56:02.142Z,17.73
2023-03-15T00:57:02.194Z,17.73
2023-03-15T00:58:02.194Z,17.71
2023-03-15T00:59:02.234Z,17.74
2023-03-15T01:00:02.269Z,17.65
2023-03-15T01:01:02.574Z,17.68
2023-03-15T01:02:02.379Z,17.68
2023-03-15T01:03:02.419Z,17.68
2023-03-15T01:04:02.360Z,17.71
2023-03-15T01:05:02.376Z,17.70
2023-03-15T01:06:02.416Z,17.63
2023-03-15T01:07:02.430Z,17.60
2023-03-15T01:08:02.815Z,17.58
2023-03-15T01:09:02.486Z,17.58
2023-03-15T01:10:02.521Z,17.57
2023-03-15T01:11:02.543Z,17.60
2023-03-15T01:12:02.566Z,17.57
2023-03-15T01:13:02.613Z,17.55
2023-03-15T01:14:02.621Z,17.54
2023-03-15T01:15:02.946Z,17.55
2023-03-15T01:16:02.759Z,17.57
2023-03-15T01:17:02.715Z,17.60
2023-03-15T01:18:02.768Z,17.55
2023-03-15T01:19:02.756Z,17.53
2023-03-15T01:20:02.781Z,17.58
2023-03-15T01:21:02.806Z,17.55
2023-03-15T01:22:03.135Z,17.55
2023-03-15T01:23:02.859Z,17.54
2023-03-15T01:24:02.886Z,17.51
2023-03-15T01:25:02.925Z,17.47
2023-03-15T01:26:02.952Z,17.45
2023-03-15T01:27:02.971Z,17.42
2023-03-15T01:28:03.017Z,17.46
2023-03-15T01:29:03.342Z,17.47
2023-03-15T01:30:03.096Z,17.38
2023-03-15T01:31:03.193Z,17.45
2023-03-15T01:32:03.159Z,17.39
2023-03-15T01:33:03.156Z,17.42
2023-03-15T01:34:03.148Z,17.39
2023-03-15T01:35:03.181Z,17.38
2023-03-15T01:36:03.510Z,17.40
2023-03-15T01:37:03.239Z,17.38
2023-03-15T01:38:03.255Z,17.30
2023-03-15T01:39:03.284Z,17.30
2023-03-15T01:40:03.329Z,17.36
2023-03-15T01:41:03.349Z,17.33
2023-03-15T01:42:03.376Z,17.33
2023-03-15T01:43:03.693Z,17.36
2023-03-15T01:44:03.421Z,17.30
2023-03-15T01:45:03.464Z,17.24
2023-03-15T01:46:03.471Z,17.20
2023-03-15T01:47:03.554Z,17.32
2023-03-15T01:48:03.521Z,17.17
2023-03-15T01:49:03.852Z,17.28
2023-03-15T01:50:03.581Z,17.22
2023-03-15T01:51:03.606Z,17.22
2023-03-15T01:52:03.690Z,17.20
2023-03-15T01:53:03.658Z,17.27
2023-03-15T01:54:03.693Z,17.25
2023-03-15T01:55:04.011Z,17.20
2023-03-15T01:56:03.740Z,17.30
2023-03-15T01:57:03.763Z,17.27
2023-03-15T01:58:03.785Z,17.20
2023-03-15T01:59:03.832Z,17.28
2023-03-15T02:00:03.851Z,17.27
2023-03-15T02:01:04.349Z,17.25
2023-03-15T02:02:03.946Z,17.21
2023-03-15T02:03:03.941Z,17.18
2023-03-15T02:04:03.970Z,17.21
2023-03-15T02:05:03.981Z,17.21
2023-03-15T02:06:04.024Z,17.21
2023-03-15T02:07:04.054Z,17.07
2023-03-15T02:08:04.355Z,17.07
2023-03-15T02:10:41.242Z,17.09
2023-03-15T02:11:41.264Z,17.09
2023-03-15T02:12:41.290Z,17.15
2023-03-15T02:13:41.323Z,17.14
2023-03-15T02:14:41.343Z,17.06
2023-03-15T02:15:41.375Z,17.09
2023-03-15T02:16:41.827Z,17.10
2023-03-15T02:17:41.457Z,17.15
2023-03-15T02:18:41.460Z,17.12
2023-03-15T02:19:41.612Z,17.14
2023-03-15T02:20:41.539Z,17.10
2023-03-15T02:21:41.542Z,17.10
2023-03-15T02:22:41.856Z,17.21
2023-03-15T02:23:41.582Z,17.17
2023-03-15T02:24:41.609Z,17.24
2023-03-15T02:25:41.642Z,17.22
2023-03-15T02:26:41.659Z,17.24
2023-03-15T02:27:41.688Z,17.27
2023-03-15T02:28:41.971Z,17.25
2023-03-15T02:29:41.749Z,17.30
2023-03-15T02:30:41.769Z,17.33
2023-03-15T02:31:41.850Z,17.22
2023-03-15T02:32:41.866Z,17.28
2023-03-15T02:33:41.870Z,17.25
2023-03-15T02:34:42.172Z,17.22
2023-03-15T02:35:41.907Z,17.27
2023-03-15T02:36:41.923Z,17.25
2023-03-15T02:37:41.952Z,17.28
2023-03-15T02:38:41.981Z,17.24
2023-03-15T02:39:42.003Z,17.25
2023-03-15T02:40:42.035Z,17.25
2023-03-15T02:41:42.391Z,17.18
2023-03-15T02:42:42.080Z,17.27
2023-03-15T02:43:42.112Z,17.25
2023-03-15T02:44:42.137Z,17.22
2023-03-15T02:45:42.342Z,17.30
2023-03-15T02:46:42.188Z,17.38
2023-03-15T02:47:42.221Z,17.22
2023-03-15T02:48:42.562Z,17.27
2023-03-15T02:49:42.267Z,17.24
2023-03-15T02:50:42.295Z,17.28
2023-03-15T02:51:42.335Z,17.24
2023-03-15T02:52:42.352Z,17.24
2023-03-15T02:53:42.386Z,17.20
2023-03-15T02:54:42.401Z,17.24
2023-03-15T02:55:42.731Z,17.21
2023-03-15T02:56:42.460Z,17.27
2023-03-15T02:57:42.491Z,17.20
2023-03-15T02:58:42.516Z,17.22
2023-03-15T02:59:42.658Z,17.33
2023-03-15T03:00:42.656Z,17.30
2023-03-15T03:01:42.640Z,17.30
2023-03-15T03:02:42.989Z,17.27
2023-03-15T03:03:42.649Z,17.25
2023-03-15T03:04:42.704Z,17.28
2023-03-15T03:05:42.699Z,17.25
2023-03-15T03:06:42.723Z,17.27
2023-03-15T03:07:42.778Z,17.24
2023-03-15T03:08:42.778Z,17.28
2023-03-15T03:09:43.054Z,17.25
2023-03-15T03:10:42.832Z,17.24
2023-03-15T03:11:42.873Z,17.25
2023-03-15T03:12:42.881Z,17.33
2023-03-15T03:13:42.909Z,17.21
2023-03-15T03:14:42.941Z,17.24
2023-03-15T03:15:44.024Z,17.38
2023-03-15T03:16:43.322Z,17.18
2023-03-15T03:17:43.018Z,17.28
2023-03-15T03:18:43.041Z,17.32
2023-03-15T03:19:43.068Z,17.27
2023-03-15T03:20:43.249Z,17.25
2023-03-15T03:21:43.130Z,17.22
2023-03-15T03:22:43.159Z,17.27
2023-03-15T03:23:43.472Z,17.25
2023-03-15T03:26:43.254Z,17.24
2023-03-15T03:27:43.281Z,17.21
2023-03-15T03:28:43.302Z,17.21
2023-03-15T03:29:43.338Z,17.18
2023-03-15T03:30:43.657Z,17.20
2023-03-15T03:31:43.395Z,17.27
2023-03-15T03:32:43.538Z,17.24
2023-03-15T03:33:43.431Z,17.28
2023-03-15T03:34:43.469Z,17.17
2023-03-15T03:35:43.492Z,17.30
2023-03-15T03:36:43.537Z,17.17
2023-03-15T03:37:43.862Z,17.33
2023-03-15T03:38:43.669Z,17.21
2023-03-15T03:39:43.594Z,17.30
2023-03-15T03:40:43.627Z,17.28
2023-03-15T03:41:43.651Z,17.21
2023-03-15T03:42:43.673Z,17.33
2023-03-15T03:43:43.698Z,17.30
2023-03-15T03:44:44.028Z,17.39
2023-03-15T03:45:43.779Z,17.30
2023-03-15T03:46:43.802Z,17.30
2023-03-15T03:47:43.809Z,17.35
2023-03-15T03:48:43.836Z,17.35
2023-03-15T03:49:43.863Z,17.30
2023-03-15T03:50:43.891Z,17.33
2023-03-15T03:51:44.217Z,17.28
2023-03-15T03:52:44.000Z,17.33
2023-03-15T03:53:43.968Z,17.32
2023-03-15T03:54:43.996Z,17.33
2023-03-15T03:55:44.020Z,17.38
2023-03-15T03:56:44.056Z,17.21
2023-03-15T03:57:44.076Z,17.25
2023-03-15T03:58:44.359Z,17.30
2023-03-15T03:59:44.131Z,17.28
2023-03-15T04:00:44.165Z,17.33
2023-03-15T04:01:44.183Z,17.32
2023-03-15T04:02:44.289Z,17.28
2023-03-15T04:03:44.237Z,17.32
2023-03-15T04:04:44.633Z,17.28
2023-03-15T04:05:44.293Z,17.28
2023-03-15T04:06:44.315Z,17.28
2023-03-15T04:07:44.341Z,17.33
2023-03-15T04:08:44.429Z,17.32
2023-03-15T04:09:44.399Z,17.32
2023-03-15T04:10:44.727Z,17.27
2023-03-15T04:11:44.479Z,17.35
2023-03-15T04:12:44.526Z,17.33
2023-03-15T04:14:44.530Z,17.33
2023-03-15T04:15:44.577Z,17.35
2023-03-15T04:16:44.852Z,17.35
2023-03-15T04:17:44.613Z,17.30
2023-03-15T04:18:44.649Z,17.28
2023-03-15T04:19:44.672Z,17.33
2023-03-15T04:20:44.699Z,17.28
2023-03-15T04:21:44.722Z,17.27
2023-03-15T04:22:44.745Z,17.24
2023-03-15T04:23:45.028Z,17.28
2023-03-15T04:24:44.873Z,17.33
2023-03-15T04:25:44.846Z,17.32
2023-03-15T04:26:44.854Z,17.30
2023-03-15T04:27:44.884Z,17.32
2023-03-15T04:28:44.914Z,17.27
2023-03-15T04:29:44.942Z,17.33
2023-03-15T04:30:45.274Z,17.33
2023-03-15T04:31:45.043Z,17.30
2023-03-15T04:32:45.080Z,17.30
2023-03-15T04:33:45.057Z,17.33
2023-03-15T04:34:45.068Z,17.33
2023-03-15T04:35:45.126Z,17.27
2023-03-15T04:36:45.127Z,17.33
2023-03-15T04:37:45.456Z,17.24
2023-03-15T04:38:45.181Z,17.36
2023-03-15T04:39:45.212Z,17.30
2023-03-15T04:40:45.253Z,17.28
2023-03-15T04:41:45.367Z,17.30
2023-03-15T04:42:45.290Z,17.33
2023-03-15T04:43:45.317Z,17.30
2023-03-15T04:44:45.643Z,17.32
2023-03-15T04:45:45.371Z,17.27
2023-03-15T04:46:45.511Z,17.21
2023-03-15T04:47:45.425Z,17.33
2023-03-15T04:48:45.460Z,17.33
2023-03-15T04:49:45.482Z,17.33
2023-03-15T04:50:45.514Z,17.32
2023-03-15T04:51:45.868Z,17.38
2023-03-15T04:52:45.557Z,17.30
2023-03-15T04:53:45.588Z,17.32
2023-03-15T04:54:45.612Z,17.33
2023-03-15T04:55:45.642Z,17.27
2023-03-15T04:56:45.690Z,17.33
2023-03-15T04:57:45.702Z,17.35
2023-03-15T04:58:46.056Z,17.24
2023-03-15T04:59:45.756Z,17.32
2023-03-15T05:00:45.804Z,17.33
2023-03-15T05:01:45.835Z,17.27
2023-03-15T05:02:45.827Z,17.32
2023-03-15T05:03:45.864Z,17.36
2023-03-15T05:04:45.893Z,17.33
2023-03-15T05:05:46.211Z,17.30
2023-03-15T05:06:45.935Z,17.25
2023-03-15T05:07:45.969Z,17.21
2023-03-15T05:08:45.988Z,17.24
2023-03-15T05:09:46.036Z,17.30
2023-03-15T05:10:46.050Z,17.32
2023-03-15T05:11:46.070Z,17.25
2023-03-15T05:12:46.468Z,17.30
2023-03-15T05:13:46.123Z,17.28
2023-03-15T05:14:46.199Z,17.33
2023-03-15T05:15:46.193Z,17.21
2023-03-15T05:16:46.209Z,17.22
2023-03-15T05:18:46.262Z,17.25
2023-03-15T05:19:46.543Z,17.25
2023-03-15T05:20:46.319Z,17.27
2023-03-15T05:21:46.350Z,17.36
2023-03-15T05:22:46.367Z,17.21
2023-03-15T05:23:46.390Z,17.30
2023-03-15T05:24:46.426Z,17.30
2023-03-15T05:25:46.448Z,17.32
2023-03-15T05:26:46.777Z,17.25
2023-03-15T05:27:46.515Z,17.28
2023-03-15T05:28:46.552Z,17.21
2023-03-15T05:29:46.561Z,17.21
2023-03-15T05:30:46.590Z,17.25
2023-03-15T05:31:46.680Z,17.30
2023-03-15T05:32:46.669Z,17.33
2023-03-15T05:33:47.223Z,17.22
2023-03-15T05:34:46.693Z,17.27
2023-03-15T05:35:46.798Z,17.27
2023-03-15T05:36:46.749Z,17.30
2023-03-15T05:37:46.776Z,17.28
2023-03-15T05:38:46.796Z,17.27
2023-03-15T05:39:46.823Z,17.33
2023-03-15T05:40:47.155Z,17.30
2023-03-15T05:41:46.872Z,17.28
2023-03-15T05:42:46.904Z,17.30
2023-03-15T05:43:46.976Z,17.30
2023-03-15T05:44:46.980Z,17.30
2023-03-15T05:45:47.027Z,17.27
2023-03-15T05:46:47.007Z,17.33
2023-03-15T05:47:47.340Z,17.33
2023-03-15T05:48:47.086Z,17.30
2023-03-15T05:49:47.153Z,17.33
2023-03-15T05:50:47.131Z,17.32
2023-03-15T05:51:47.156Z,17.38
2023-03-15T05:52:47.177Z,17.35
2023-03-15T05:53:47.214Z,17.33
2023-03-15T05:54:47.581Z,17.35
2023-03-15T05:55:47.256Z,17.33
2023-03-15T05:56:47.286Z,17.25
2023-03-15T05:57:47.305Z,17.38
2023-03-15T05:58:47.348Z,17.30
2023-03-15T05:59:47.366Z,17.27
2023-03-15T06:00:47.711Z,17.28
2023-03-15T06:01:47.412Z,17.30
2023-03-15T06:02:47.744Z,17.27
2023-03-15T06:03:47.598Z,17.28
2023-03-15T06:04:47.496Z,17.33
2023-03-15T06:05:47.526Z,17.36
2023-03-15T06:06:47.804Z,17.33
2023-03-15T06:07:47.590Z,17.28
2023-03-15T06:08:47.622Z,17.33
2023-03-15T06:09:47.645Z,17.33
2023-03-15T06:10:47.665Z,17.28
2023-03-15T06:11:47.683Z,17.28
2023-03-15T06:12:48.011Z,17.43
2023-03-15T06:13:47.740Z,17.33
2023-03-15T06:14:47.767Z,17.40
2023-03-15T06:15:47.797Z,17.33
2023-03-15T06:16:47.897Z,17.28
2023-03-15T06:17:47.856Z,17.33
2023-03-15T06:18:48.020Z,17.30
2023-03-15T06:20:47.938Z,17.27
2023-03-15T06:21:47.967Z,17.32
2023-03-15T06:22:48.006Z,17.40
2023-03-15T06:23:48.009Z,17.46
2023-03-15T06:24:48.145Z,17.33
2023-03-15T06:25:48.072Z,17.39
2023-03-15T06:26:48.102Z,17.32
2023-03-15T06:27:48.119Z,17.40
2023-03-15T06:28:48.137Z,17.33
2023-03-15T06:29:48.180Z,17.45
2023-03-15T06:30:48.272Z,17.32
2023-03-15T06:31:48.526Z,17.40
2023-03-15T06:32:48.340Z,17.42
2023-03-15T06:33:48.288Z,17.38
2023-03-15T06:34:48.310Z,17.43
2023-03-15T06:35:48.615Z,17.39
2023-03-15T06:36:48.359Z,17.40
2023-03-15T06:37:48.398Z,17.39
2023-03-15T06:38:48.726Z,17.40
2023-03-15T06:39:48.445Z,17.46
2023-03-15T06:40:48.465Z,17.39
2023-03-15T06:41:48.516Z,17.38
2023-03-15T06:42:48.526Z,17.47
2023-03-15T06:43:48.572Z,17.38
2023-03-15T06:44:50.777Z,17.40
2023-03-15T06:45:48.929Z,17.42
2023-03-15T06:47:48.666Z,17.39
2023-03-15T06:48:48.713Z,17.36
2023-03-15T06:49:48.763Z,17.43
2023-03-15T06:50:48.746Z,17.40
2023-03-15T06:51:48.765Z,17.43
2023-03-15T06:52:49.096Z,17.43
2023-03-15T06:53:48.895Z,17.54
2023-03-15T06:54:48.846Z,17.45
2023-03-15T06:55:48.881Z,17.45
2023-03-15T06:56:48.912Z,17.46
2023-03-15T06:57:48.937Z,17.46
2023-03-15T06:58:49.260Z,17.45
2023-03-15T06:59:48.987Z,17.46
2023-03-15T07:00:49.021Z,17.45
2023-03-15T07:01:49.074Z,17.53
2023-03-15T07:02:49.104Z,17.49
2023-03-15T07:03:49.095Z,17.47
2023-03-15T07:04:49.453Z,17.51
2023-03-15T07:05:49.153Z,17.51
2023-03-15T07:06:49.233Z,17.58
2023-03-15T07:07:49.246Z,17.55
2023-03-15T07:08:49.240Z,17.51
2023-03-15T07:09:49.262Z,17.47
2023-03-15T07:10:49.734Z,17.57
2023-03-15T07:11:49.318Z,17.63
2023-03-15T07:12:49.345Z,17.51
2023-03-15T07:13:49.367Z,17.55
2023-03-15T07:14:49.412Z,17.51
2023-03-15T07:15:49.436Z,17.58
2023-03-15T07:16:49.460Z,17.54
2023-03-15T07:17:49.779Z,17.55
2023-03-15T07:18:49.506Z,17.54
2023-03-15T07:19:56.273Z,17.57
2023-03-15T07:21:49.614Z,17.58
2023-03-15T07:22:49.618Z,17.54
2023-03-15T07:23:49.704Z,17.58
2023-03-15T07:24:49.973Z,17.57
2023-03-15T07:25:54.928Z,17.62
2023-03-15T07:27:49.755Z,17.54
2023-03-15T07:28:49.785Z,17.49
2023-03-15T07:29:49.806Z,17.53
2023-03-15T07:30:49.830Z,17.62
2023-03-15T07:31:50.305Z,17.53
2023-03-15T07:32:50.070Z,17.55
2023-03-15T07:33:49.915Z,17.57
2023-03-15T07:34:49.941Z,17.55
2023-03-15T07:35:50.025Z,17.49
2023-03-15T07:36:49.993Z,17.62
2023-03-15T07:37:50.062Z,17.58
2023-03-15T07:38:50.348Z,17.54
2023-03-15T07:39:50.075Z,17.54
2023-03-15T07:40:50.108Z,17.51
2023-03-15T07:42:50.158Z,17.47
2023-03-15T07:43:50.180Z,17.57
2023-03-15T07:44:50.219Z,17.54
2023-03-15T07:45:50.549Z,17.54
2023-03-15T07:46:50.315Z,17.60
2023-03-15T07:47:50.293Z,17.49
2023-03-15T07:48:50.326Z,17.55
2023-03-15T07:49:50.348Z,17.51
2023-03-15T07:50:50.373Z,17.55
2023-03-15T07:51:50.401Z,17.55
2023-03-15T07:52:51.591Z,17.57
2023-03-15T07:53:50.482Z,17.60
2023-03-15T07:54:50.483Z,17.63
2023-03-15T07:55:50.507Z,17.62
2023-03-15T07:56:50.538Z,17.55
2023-03-15T07:57:52.865Z,17.58
2023-03-15T07:58:50.593Z,17.60
2023-03-15T07:59:50.916Z,17.63
2023-03-15T08:00:50.648Z,17.66
2023-03-15T08:01:50.703Z,17.58
2023-03-15T08:02:50.741Z,17.71
2023-03-15T08:03:50.724Z,17.68
2023-03-15T08:04:50.758Z,17.73
2023-03-15T08:06:51.116Z,17.66
2023-03-15T08:07:50.954Z,17.71
2023-03-15T08:08:50.859Z,17.66
2023-03-15T08:09:50.935Z,17.66
2023-03-15T08:10:50.914Z,17.65
2023-03-15T08:11:50.940Z,17.71
2023-03-15T08:12:50.964Z,17.65
2023-03-15T08:13:51.311Z,17.74
2023-03-15T08:14:51.174Z,17.70
2023-03-15T08:15:51.180Z,17.68
2023-03-15T08:16:51.137Z,17.73
2023-03-15T08:17:51.177Z,17.66
2023-03-15T08:18:51.231Z,17.74
2023-03-15T08:19:51.268Z,17.70
2023-03-15T08:20:51.759Z,17.71
2023-03-15T08:21:51.220Z,17.73
2023-03-15T08:22:51.378Z,17.73
2023-03-15T08:23:51.273Z,17.79
2023-03-15T08:24:51.400Z,17.77
2023-03-15T08:25:51.351Z,17.74
2023-03-15T08:26:51.426Z,17.70
2023-03-15T08:27:51.750Z,17.76
2023-03-15T08:28:51.466Z,17.71
2023-03-15T08:29:53.316Z,17.74
2023-03-15T08:30:51.562Z,17.81
2023-03-15T08:31:51.749Z,17.79
2023-03-15T08:32:51.655Z,17.80
2023-03-15T08:33:51.550Z,17.77
2023-03-15T08:34:51.632Z,17.77
2023-03-15T08:35:51.656Z,17.84
2023-03-15T08:36:51.703Z,17.86
2023-03-15T08:37:51.664Z,17.89
2023-03-15T08:38:51.683Z,17.83
2023-03-15T08:39:51.713Z,17.83
2023-03-15T08:40:52.036Z,17.86
2023-03-15T08:41:51.791Z,17.83
2023-03-15T08:42:51.797Z,17.91
2023-03-15T08:43:51.830Z,17.81
2023-03-15T08:44:51.903Z,17.86
2023-03-15T08:46:00.836Z,17.83
2023-03-15T08:46:51.954Z,17.81
2023-03-15T08:47:51.929Z,17.83
2023-03-15T08:48:51.961Z,17.83
2023-03-15T08:49:51.982Z,17.80
2023-03-15T08:50:52.007Z,17.86
2023-03-15T08:51:52.039Z,17.87
2023-03-15T08:52:52.068Z,17.92
2023-03-15T08:53:52.106Z,17.95
2023-03-15T08:54:52.118Z,17.87
2023-03-15T08:55:52.142Z,17.94
2023-03-15T08:56:52.271Z,17.94
2023-03-15T08:57:52.236Z,17.96
2023-03-15T08:58:52.500Z,17.96
2023-03-15T08:59:52.275Z,17.95
2023-03-15T09:00:52.289Z,17.98
2023-03-15T09:01:52.407Z,18.01
2023-03-15T09:02:52.414Z,17.99
2023-03-15T09:03:52.432Z,17.92
2023-03-15T09:04:53.490Z,17.95
2023-03-15T09:05:52.669Z,18.04
2023-03-15T09:06:52.444Z,17.98
2023-03-15T09:07:52.576Z,18.04
2023-03-15T09:08:52.501Z,17.99
2023-03-15T09:09:52.827Z,18.01
2023-03-15T09:10:52.560Z,18.04
2023-03-15T09:11:52.855Z,17.99
2023-03-15T09:12:52.912Z,18.04
2023-03-15T09:13:52.661Z,18.01
2023-03-15T09:14:52.675Z,17.96
2023-03-15T09:15:52.691Z,18.04
2023-03-15T09:16:52.799Z,17.99
2023-03-15T09:17:52.761Z,17.99
2023-03-15T09:18:52.775Z,17.96
2023-03-15T09:19:53.104Z,18.02
2023-03-15T09:20:52.838Z,18.07
2023-03-15T09:21:52.870Z,17.96
2023-03-15T09:22:52.901Z,18.01
2023-03-15T09:23:52.938Z,17.94
2023-03-15T09:24:52.946Z,17.98
2023-03-15T09:25:52.981Z,18.02
2023-03-15T09:26:53.306Z,17.92
2023-03-15T09:27:53.029Z,17.98
2023-03-15T09:28:53.067Z,18.02
2023-03-15T09:29:53.107Z,17.98
2023-03-15T09:30:53.172Z,17.98
2023-03-15T09:31:53.158Z,17.99
2023-03-15T09:32:53.259Z,17.99
2023-03-15T09:33:53.501Z,17.91
2023-03-15T09:34:53.231Z,17.99
2023-03-15T09:35:53.318Z,17.95
2023-03-15T09:36:53.276Z,18.01
2023-03-15T09:37:53.308Z,17.94
2023-03-15T09:38:53.358Z,17.96
2023-03-15T09:39:53.384Z,17.98
2023-03-15T09:40:53.643Z,18.01
2023-03-15T09:41:53.416Z,18.01
2023-03-15T09:42:53.449Z,17.98
2023-03-15T09:43:53.487Z,17.96
2023-03-15T09:44:53.507Z,17.98
2023-03-15T09:45:53.606Z,17.99
2023-03-15T09:46:53.756Z,18.02
2023-03-15T09:47:53.834Z,17.98
2023-03-15T09:48:53.620Z,17.99
2023-03-15T09:49:53.641Z,17.96
2023-03-15T09:50:53.664Z,18.04
2023-03-15T09:51:53.700Z,18.01
2023-03-15T09:52:53.722Z,17.99
2023-03-15T09:53:53.752Z,18.02
2023-03-15T09:54:54.026Z,17.95
2023-03-15T09:55:53.803Z,17.99
2023-03-15T09:56:53.833Z,18.05
2023-03-15T09:57:53.865Z,17.96
2023-03-15T09:58:53.884Z,18.07
2023-03-15T09:59:53.914Z,18.09
2023-03-15T10:00:53.943Z,18.05
2023-03-15T10:01:54.428Z,18.04
2023-03-15T10:02:53.994Z,18.02
2023-03-15T10:03:54.072Z,18.09
2023-03-15T10:04:54.053Z,18.14
2023-03-15T10:05:54.098Z,18.05
2023-03-15T10:06:54.193Z,18.07
2023-03-15T10:08:54.470Z,18.11
2023-03-15T10:09:54.196Z,18.09
2023-03-15T10:10:54.221Z,18.09
2023-03-15T10:11:54.245Z,18.16
2023-03-15T10:12:54.278Z,18.11
2023-03-15T10:13:54.312Z,18.13
2023-03-15T10:14:54.327Z,18.16
2023-03-15T10:15:54.675Z,18.17
2023-03-15T10:16:54.392Z,18.21
2023-03-15T10:17:54.452Z,18.26
2023-03-15T10:18:54.443Z,18.29
2023-03-15T10:19:54.468Z,18.28
2023-03-15T10:20:54.573Z,18.29
2023-03-15T10:21:54.529Z,18.31
2023-03-15T10:22:54.852Z,18.31
2023-03-15T10:23:54.580Z,18.29
2023-03-15T10:24:54.619Z,18.39
2023-03-15T10:25:54.671Z,18.44
2023-03-15T10:26:54.674Z,18.41
2023-03-15T10:27:54.698Z,18.42
2023-03-15T10:28:55.057Z,18.53
2023-03-15T10:29:54.787Z,18.50
2023-03-15T10:30:54.844Z,18.47
2023-03-15T10:31:54.892Z,18.51
2023-03-15T10:32:54.914Z,18.56
2023-03-15T10:33:54.877Z,18.44
2023-03-15T10:34:54.917Z,18.49
2023-03-15T10:36:04.382Z,18.44
2023-03-15T10:36:54.948Z,18.53
2023-03-15T10:37:54.970Z,18.50
2023-03-15T10:38:54.994Z,18.36
2023-03-15T10:39:55.022Z,18.46
2023-03-15T10:40:55.083Z,18.44
2023-03-15T10:41:55.080Z,18.36
2023-03-15T10:42:55.109Z,18.46
2023-03-15T10:43:55.131Z,18.51
2023-03-15T10:44:55.166Z,18.47
2023-03-15T10:45:55.195Z,18.51
2023-03-15T10:46:55.637Z,18.42
2023-03-15T10:48:00.287Z,18.44
2023-03-15T10:48:55.274Z,18.44
2023-03-15T10:49:55.333Z,18.41
2023-03-15T10:50:55.329Z,18.47
2023-03-15T10:51:55.356Z,18.54
2023-03-15T10:52:55.386Z,18.50
2023-03-15T10:53:55.410Z,18.50
2023-03-15T10:55:03.958Z,18.64
2023-03-15T10:55:55.487Z,18.51
2023-03-15T10:56:55.493Z,18.64
2023-03-15T10:57:55.526Z,18.56
2023-03-15T10:59:11.490Z,18.57
2023-03-15T10:59:55.578Z,18.62
2023-03-15T11:00:55.608Z,18.60
2023-03-15T11:02:55.692Z,18.68
2023-03-15T11:04:55.716Z,18.64
2023-03-15T11:05:56.067Z,18.64
2023-03-15T11:06:55.780Z,18.69
2023-03-15T11:07:55.858Z,18.69
2023-03-15T11:08:55.852Z,18.65
2023-03-15T11:09:55.883Z,18.66
2023-03-15T11:10:55.904Z,18.71
2023-03-15T11:11:56.436Z,18.76
2023-03-15T11:12:56.012Z,18.72
2023-03-15T11:13:57.392Z,18.72
2023-03-15T11:14:56.591Z,18.64
2023-03-15T11:15:56.124Z,18.74
2023-03-15T11:16:56.252Z,18.71
2023-03-15T11:17:56.469Z,18.76
2023-03-15T11:18:56.167Z,18.75
2023-03-15T11:19:56.910Z,18.74
2023-03-15T11:20:56.202Z,18.83
2023-03-15T11:21:56.280Z,18.78
2023-03-15T11:22:56.239Z,18.82
2023-03-15T11:23:56.721Z,18.76
2023-03-15T11:24:56.649Z,18.74
2023-03-15T11:25:56.372Z,18.86
2023-03-15T11:26:56.402Z,18.89
2023-03-15T11:27:56.735Z,18.86
2023-03-15T11:28:58.291Z,18.91
2023-03-15T11:29:56.437Z,18.86
2023-03-15T11:30:56.764Z,18.91
2023-03-15T11:31:56.611Z,18.96
2023-03-15T11:32:56.591Z,18.83
2023-03-15T11:33:56.562Z,18.97
2023-03-15T11:34:56.577Z,18.86
2023-03-15T11:35:56.629Z,18.89
2023-03-15T11:37:07.658Z,18.90
2023-03-15T11:38:06.212Z,19.05
2023-03-15T11:38:56.791Z,18.94
2023-03-15T11:40:08.750Z,19.01
2023-03-15T11:40:56.828Z,19.13
2023-03-15T11:41:56.780Z,19.10
2023-03-15T11:42:56.828Z,19.06
2023-03-15T11:43:56.907Z,19.07
2023-03-15T11:44:57.161Z,19.07
2023-03-15T11:45:56.911Z,19.20
2023-03-15T11:47:57.165Z,19.10
2023-03-15T11:48:56.992Z,19.23
2023-03-15T11:49:57.053Z,19.24
2023-03-15T11:50:57.023Z,19.24
2023-03-15T11:51:57.435Z,19.16
2023-03-15T11:52:57.210Z,19.27
2023-03-15T11:53:57.143Z,19.30
2023-03-15T11:55:57.260Z,19.25
2023-03-15T11:56:57.211Z,19.24
2023-03-15T11:57:57.246Z,19.24
2023-03-15T11:59:59.001Z,19.20
2023-03-15T12:00:57.399Z,19.17
2023-03-15T12:01:57.624Z,19.17
2023-03-15T12:02:57.609Z,19.20
2023-03-15T12:03:57.425Z,19.17
2023-03-15T12:05:01.767Z,19.15
2023-03-15T12:05:57.477Z,19.12
2023-03-15T12:06:57.532Z,19.10
2023-03-15T12:07:57.554Z,19.16
2023-03-15T12:08:57.581Z,19.12
2023-03-15T12:09:57.698Z,19.21
2023-03-15T12:10:57.661Z,19.07
2023-03-15T12:11:57.687Z,19.09
2023-03-15T12:12:57.694Z,19.12
2023-03-15T12:13:57.699Z,19.09
2023-03-15T12:15:02.929Z,19.09
2023-03-15T12:15:57.971Z,19.15
2023-03-15T12:16:57.973Z,19.15
2023-03-15T12:17:58.183Z,19.12
2023-03-15T12:19:10.003Z,19.10
2023-03-15T12:20:01.548Z,19.12
2023-03-15T12:20:57.888Z,19.05
2023-03-15T12:21:57.904Z,19.10
2023-03-15T12:22:58.443Z,19.15
2023-03-15T12:23:58.029Z,19.10
2023-03-15T12:24:58.020Z,19.13
2023-03-15T12:25:58.062Z,19.17
2023-03-15T12:26:58.154Z,19.17
2023-03-15T12:27:58.085Z,19.23
2023-03-15T12:28:58.126Z,19.20
2023-03-15T12:29:58.704Z,19.25
2023-03-15T12:30:58.197Z,19.16
2023-03-15T12:31:58.210Z,19.28
2023-03-15T12:32:58.364Z,19.28
2023-03-15T12:33:58.328Z,19.31
2023-03-15T12:34:58.305Z,19.28
2023-03-15T12:35:58.372Z,19.34
2023-03-15T12:36:58.347Z,19.28
2023-03-15T12:37:58.370Z,19.34
2023-03-15T12:38:58.405Z,19.40
2023-03-15T12:39:58.441Z,19.38
2023-03-15T12:40:58.666Z,19.42
2023-03-15T12:41:58.501Z,19.49
2023-03-15T12:42:58.802Z,19.39
2023-03-15T12:43:58.550Z,19.49
2023-03-15T12:44:58.572Z,19.53
2023-03-15T12:45:58.637Z,19.46
2023-03-15T12:46:58.636Z,19.50
2023-03-15T12:47:58.654Z,19.50
2023-03-15T12:48:58.684Z,19.57
2023-03-15T12:49:58.943Z,19.53
2023-03-15T12:50:58.784Z,19.57
2023-03-15T12:51:59.486Z,19.50
2023-03-15T12:52:58.813Z,19.49
2023-03-15T12:53:58.817Z,19.60
2023-03-15T12:54:58.861Z,19.52
2023-03-15T12:56:08.055Z,19.53
2023-03-15T12:56:58.920Z,19.50
2023-03-15T12:57:58.949Z,19.50
2023-03-15T12:58:58.965Z,19.49
2023-03-15T12:59:59.284Z,19.49
2023-03-15T13:00:59.025Z,19.45
2023-03-15T13:01:59.048Z,19.60
2023-03-15T13:03:01.896Z,19.50
2023-03-15T13:03:59.145Z,19.58
2023-03-15T13:04:59.156Z,19.62
2023-03-15T13:06:03.894Z,19.61
2023-03-15T13:06:59.224Z,19.61
2023-03-15T13:07:59.237Z,19.61
2023-03-15T13:08:59.274Z,19.68
2023-03-15T13:09:59.294Z,19.62
2023-03-15T13:10:59.325Z,19.62
2023-03-15T13:11:59.349Z,19.61
2023-03-15T13:12:59.389Z,19.52
2023-03-15T13:13:59.419Z,19.57
2023-03-15T13:14:59.429Z,19.60
2023-03-15T13:15:59.856Z,19.61
2023-03-15T13:16:59.503Z,19.58
2023-03-15T13:18:01.629Z,19.61
2023-03-15T13:19:00.197Z,19.58
2023-03-15T13:20:01.631Z,19.60
2023-03-15T13:21:02.785Z,19.61
2023-03-15T13:22:00.482Z,19.58
2023-03-15T13:22:59.677Z,19.53
2023-03-15T13:23:59.773Z,19.64
2023-03-15T13:24:59.757Z,19.58
2023-03-15T13:25:59.740Z,19.53
2023-03-15T13:26:59.809Z,19.67
2023-03-15T13:28:00.125Z,19.60
2023-03-15T13:28:59.901Z,19.61
2023-03-15T13:29:59.883Z,19.65
2023-03-15T13:30:59.930Z,19.68
2023-03-15T13:31:59.917Z,19.60
2023-03-15T13:32:59.991Z,19.64
2023-03-15T13:34:00.035Z,19.68
2023-03-15T13:35:00.325Z,19.61
2023-03-15T13:36:00.389Z,19.76
2023-03-15T13:37:00.136Z,19.72
2023-03-15T13:38:00.204Z,19.76
2023-03-15T13:39:00.128Z,19.68
2023-03-15T13:40:00.189Z,19.76
2023-03-15T13:41:00.202Z,19.65
2023-03-15T13:42:00.510Z,19.75
2023-03-15T13:43:00.242Z,19.75
2023-03-15T13:44:00.371Z,19.78
2023-03-15T13:45:00.300Z,19.80
2023-03-15T13:46:00.354Z,19.80
2023-03-15T13:47:00.437Z,19.79
2023-03-15T13:48:00.399Z,19.82
2023-03-15T13:49:00.880Z,19.80
2023-03-15T13:50:00.502Z,19.89
2023-03-15T13:51:00.470Z,19.94